createdAt,value
2022-10-23T00:00:13.874Z,101309.50
2022-10-23T00:02:40.876Z,101313.09
2022-10-23T00:05:07.938Z,101312.53
2022-10-23T00:07:34.438Z,101305.16
2022-10-23T00:10:00.966Z,101316.06
2022-10-23T00:12:28.273Z,101307.88
2022-10-23T00:14:54.737Z,101309.00
2022-10-23T00:17:21.237Z,101312.25
2022-10-23T00:19:47.703Z,101294.53
2022-10-23T00:22:14.191Z,101289.06
2022-10-23T00:24:40.668Z,101300.81
2022-10-23T00:27:07.148Z,101291.81
2022-10-23T00:29:33.706Z,101304.66
2022-10-23T00:32:00.421Z,101300.00
2022-10-23T00:34:26.870Z,101300.00
2022-10-23T00:36:53.397Z,101308.44
2022-10-23T00:39:19.874Z,101304.91
2022-10-23T00:41:46.312Z,101293.19
2022-10-23T00:44:18.834Z,101298.63
2022-10-23T00:46:46.232Z,101296.72
2022-10-23T00:49:13.647Z,101306.00
2022-10-23T00:51:52.789Z,101299.75
2022-10-23T00:54:24.760Z,101293.47
2022-10-23T00:56:55.944Z,101297.00
2022-10-23T00:59:22.636Z,101302.47
2022-10-23T01:01:49.343Z,101298.94
2022-10-23T01:04:16.136Z,101288.00
2022-10-23T01:07:00.644Z,101288.00
2022-10-23T01:09:51.442Z,101285.53
2022-10-23T01:12:46.708Z,101289.09
2022-10-23T01:15:36.892Z,101280.09
2022-10-23T01:18:13.277Z,101282.00
2022-10-23T01:20:46.630Z,101282.81
2022-10-23T01:23:21.942Z,101276.53
2022-10-23T01:26:03.660Z,101268.66
2022-10-23T01:28:53.427Z,101275.75
2022-10-23T01:31:33.438Z,101278.47
2022-10-23T01:34:08.777Z,101274.91
2022-10-23T01:36:39.636Z,101260.47
2022-10-23T01:39:14.822Z,101256.91
2022-10-23T01:41:53.026Z,101251.47
2022-10-23T01:44:27.744Z,101245.16
2022-10-23T01:46:55.922Z,101249.53
2022-10-23T01:49:23.469Z,101240.81
2022-10-23T01:51:54.960Z,101248.19
2022-10-23T01:54:26.337Z,101245.16
2022-10-23T01:56:53.019Z,101248.19
2022-10-23T01:59:35.353Z,101249.81
2022-10-23T02:02:04.001Z,101240.81
2022-10-23T02:04:36.971Z,101242.72
2022-10-23T02:07:03.815Z,101236.47
2022-10-23T02:09:31.303Z,101249.31
2022-10-23T02:12:09.796Z,101239.50
2022-10-23T02:14:58.271Z,101242.22
2022-10-23T02:17:41.091Z,101235.66
2022-10-23T02:20:18.008Z,101232.09
2022-10-23T02:22:54.232Z,101227.72
2022-10-23T02:25:30.674Z,101227.72
2022-10-23T02:28:01.039Z,101225.00
2022-10-23T02:30:28.366Z,101221.47
2022-10-23T02:32:57.611Z,101217.91
2022-10-23T02:35:25.261Z,101218.22
2022-10-23T02:37:57.216Z,101206.19
2022-10-23T02:40:41.211Z,101202.66
2022-10-23T02:43:17.059Z,101189.00
2022-10-23T02:46:01.596Z,101191.72
2022-10-23T02:48:37.393Z,101181.91
2022-10-23T02:51:10.685Z,101178.09
2022-10-23T03:00:00.555Z,101157.34
2022-10-23T03:05:41.577Z,101153.78
2022-10-23T03:08:09.634Z,101157.63
2022-10-23T03:10:36.187Z,101151.34
2022-10-23T03:13:02.647Z,101147.81
2022-10-23T03:15:29.171Z,101148.63
2022-10-23T03:17:55.701Z,101143.97
2022-10-23T03:20:22.441Z,101139.63
2022-10-23T03:22:48.949Z,101144.28
2022-10-23T03:25:15.726Z,101145.34
2022-10-23T03:27:42.163Z,101142.34
2022-10-23T03:30:09.425Z,101136.34
2022-10-23T03:32:36.026Z,101126.25
2022-10-23T03:35:02.479Z,101118.38
2022-10-23T03:37:28.931Z,101112.91
2022-10-23T03:39:55.412Z,101108.25
2022-10-23T03:42:21.859Z,101100.06
2022-10-23T03:44:48.360Z,101113.72
2022-10-23T03:47:15.035Z,101115.34
2022-10-23T03:49:41.533Z,101092.69
2022-10-23T03:52:08.575Z,101095.72
2022-10-23T03:54:35.334Z,101098.44
2022-10-23T03:57:02.219Z,101103.09
2022-10-23T03:59:29.083Z,101098.44
2022-10-23T04:01:55.798Z,101102.28
2022-10-23T04:04:22.551Z,101088.66
2022-10-23T04:06:49.151Z,101093.28
2022-10-23T04:09:15.875Z,101080.47
2022-10-23T04:11:42.399Z,101088.66
2022-10-23T04:14:12.188Z,101078.81
2022-10-23T04:16:38.974Z,101069.81
2022-10-23T04:19:05.431Z,101062.44
2022-10-23T04:21:31.893Z,101047.97
2022-10-23T04:23:58.360Z,101051.00
2022-10-23T04:26:24.848Z,101043.63
2022-10-23T04:28:51.465Z,101038.16
2022-10-23T04:31:17.965Z,101042.81
2022-10-23T04:33:44.521Z,101043.94
2022-10-23T04:36:11.069Z,101045.56
2022-10-23T04:38:37.569Z,101058.38
2022-10-23T04:41:04.094Z,101054.84
2022-10-23T04:43:30.530Z,101053.72
2022-10-23T04:45:57.059Z,101050.47
2022-10-23T04:48:25.673Z,101046.66
2022-10-23T04:51:00.277Z,101048.53
2022-10-23T04:53:28.007Z,101046.94
2022-10-23T04:55:55.986Z,101047.75
2022-10-23T04:58:23.764Z,101038.75
2022-10-23T05:00:51.272Z,101028.94
2022-10-23T05:03:18.932Z,101029.75
2022-10-23T05:05:45.660Z,101019.94
2022-10-23T05:08:15.590Z,101030.03
2022-10-23T05:10:44.737Z,101042.56
2022-10-23T05:13:11.209Z,101048.84
2022-10-23T05:15:37.764Z,101047.22
2022-10-23T05:18:26.691Z,101042.88
2022-10-23T05:20:58.215Z,101026.50
2022-10-23T05:23:26.667Z,101038.22
2022-10-23T05:25:53.153Z,101042.03
2022-10-23T05:28:19.635Z,101038.50
2022-10-23T05:30:46.292Z,101039.31
2022-10-23T05:33:12.929Z,101047.50
2022-10-23T05:35:42.327Z,101043.44
2022-10-23T05:38:09.371Z,101031.44
2022-10-23T05:40:36.301Z,101037.69
2022-10-23T05:43:02.980Z,101031.44
2022-10-23T05:45:29.532Z,101035.25
2022-10-23T05:48:05.663Z,101022.69
2022-10-23T05:50:37.919Z,101025.44
2022-10-23T05:53:04.428Z,101018.91
2022-10-23T05:55:30.951Z,101005.53
2022-10-23T05:57:57.408Z,101001.72
2022-10-23T06:00:23.898Z,100996.53
2022-10-23T06:02:50.367Z,100991.06
2022-10-23T06:05:16.980Z,100997.34
2022-10-23T06:07:44.098Z,100998.16
2022-10-23T06:10:11.183Z,100984.81
2022-10-23T06:12:37.686Z,100982.06
2022-10-23T06:15:05.461Z,100978.53
2022-10-23T06:17:31.956Z,100978.53
2022-10-23T06:20:02.577Z,100980.16
2022-10-23T06:22:29.843Z,100980.47
2022-10-23T06:24:56.368Z,100977.72
2022-10-23T06:27:23.187Z,100970.63
2022-10-23T06:29:49.647Z,100964.09
2022-10-23T06:32:16.139Z,100957.81
2022-10-23T06:34:42.621Z,100948.78
2022-10-23T06:37:09.202Z,100948.78
2022-10-23T06:39:36.837Z,100956.19
2022-10-23T06:42:03.795Z,100949.91
2022-10-23T06:44:30.343Z,100952.63
2022-10-23T06:46:56.841Z,100946.06
2022-10-23T06:49:23.462Z,100955.38
2022-10-23T06:51:49.938Z,100958.09
2022-10-23T06:54:16.469Z,100952.94
2022-10-23T06:56:43.061Z,100949.09
2022-10-23T06:59:09.505Z,100940.91
2022-10-23T07:01:36.259Z,100920.19
2022-10-23T07:04:03.100Z,100921.00
2022-10-23T07:06:29.777Z,100926.78
2022-10-23T07:08:56.280Z,100921.00
2022-10-23T07:11:23.302Z,100939.56
2022-10-23T07:13:49.855Z,100926.78
2022-10-23T07:16:21.665Z,100938.75
2022-10-23T07:18:50.120Z,100934.94
2022-10-23T07:21:16.645Z,100934.94
2022-10-23T07:23:43.165Z,100924.03
2022-10-23T07:26:15.513Z,100918.84
2022-10-23T07:28:44.158Z,100927.84
2022-10-23T07:31:11.132Z,100920.47
2022-10-23T07:33:38.134Z,100921.59
2022-10-23T07:36:06.515Z,100916.94
2022-10-23T07:38:33.567Z,100911.47
2022-10-23T07:41:00.964Z,100903.28
2022-10-23T07:43:28.193Z,100902.50
2022-10-23T07:45:54.767Z,100906.03
2022-10-23T07:48:21.826Z,100907.94
2022-10-23T07:50:48.287Z,100906.31
2022-10-23T07:53:23.439Z,100906.31
2022-10-23T07:55:58.329Z,100921.88
2022-10-23T07:58:26.459Z,100913.69
2022-10-23T08:00:59.475Z,100912.91
2022-10-23T08:03:27.110Z,100907.13
2022-10-23T08:05:55.153Z,100900.34
2022-10-23T08:08:25.597Z,100887.50
2022-10-23T08:10:53.066Z,100891.06
2022-10-23T08:13:20.426Z,100879.31
2022-10-23T08:15:48.876Z,100880.97
2022-10-23T08:18:16.114Z,100871.13
2022-10-23T08:20:44.316Z,100869.53
2022-10-23T08:23:12.442Z,100868.41
2022-10-23T08:25:40.461Z,100861.34
2022-10-23T08:28:08.464Z,100855.88
2022-10-23T08:30:35.699Z,100851.22
2022-10-23T08:33:06.781Z,100851.22
2022-10-23T08:35:40.562Z,100860.53
2022-10-23T08:38:07.401Z,100857.81
2022-10-23T08:40:35.334Z,100862.44
2022-10-23T08:43:10.526Z,100861.34
2022-10-23T08:45:44.852Z,100868.72
2022-10-23T08:48:35.040Z,100864.06
2022-10-23T08:51:19.198Z,100874.16
2022-10-23T08:53:54.318Z,100855.88
2022-10-23T08:56:24.316Z,100857.00
2022-10-23T08:58:56.795Z,100852.66
2022-10-23T09:01:32.724Z,100857.00
2022-10-23T09:03:59.521Z,100849.63
2022-10-23T09:06:39.514Z,100849.91
2022-10-23T09:09:15.703Z,100845.28
2022-10-23T09:12:03.942Z,100827.25
2022-10-23T09:18:00.762Z,100823.72
2022-10-23T09:20:34.126Z,100810.38
2022-10-23T09:23:04.760Z,100809.28
2022-10-23T09:25:38.246Z,100807.66
2022-10-23T09:28:05.987Z,100812.00
2022-10-23T09:30:38.183Z,100805.75
2022-10-23T09:33:18.452Z,100799.19
2022-10-23T09:36:06.118Z,100801.91
2022-10-23T09:38:33.942Z,100797.56
2022-10-23T09:41:07.347Z,100787.47
2022-10-23T09:43:33.954Z,100787.47
2022-10-23T09:46:06.160Z,100786.66
2022-10-23T09:48:34.474Z,100797.25
2022-10-23T09:51:26.510Z,100791.81
2022-10-23T09:53:57.910Z,100773.81
2022-10-23T09:56:40.166Z,100784.47
2022-10-23T09:59:12.639Z,100784.72
2022-10-23T10:01:56.731Z,100766.16
2022-10-23T10:04:35.447Z,100757.19
2022-10-23T10:07:05.826Z,100765.06
2022-10-23T10:09:32.854Z,100760.41
2022-10-23T10:15:27.703Z,100750.63
2022-10-23T10:18:13.012Z,100733.13
2022-10-23T10:20:57.990Z,100720.03
2022-10-23T10:23:34.878Z,100710.72
2022-10-23T10:26:07.202Z,100702.84
2022-10-23T10:28:36.614Z,100705.28
2022-10-23T10:31:19.852Z,100702.53
2022-10-23T10:33:56.929Z,100687.56
2022-10-23T10:36:48.161Z,100674.72
2022-10-23T10:39:26.838Z,100657.56
2022-10-23T10:42:03.846Z,100643.13
2022-10-23T10:45:00.224Z,100644.22
2022-10-23T10:48:16.293Z,100633.31
2022-10-23T10:50:48.381Z,100636.84
2022-10-23T10:53:56.027Z,100654.34
2022-10-23T10:56:27.870Z,100661.41
2022-10-23T10:59:04.785Z,100652.41
2022-10-23T11:01:42.746Z,100642.63
2022-10-23T11:04:25.856Z,100632.50
2022-10-23T11:06:54.399Z,100625.41
2022-10-23T11:09:24.335Z,100612.63
2022-10-23T11:11:50.948Z,100595.41
2022-10-23T11:14:26.078Z,100588.34
2022-10-23T11:17:13.026Z,100610.16
2022-10-23T11:19:49.236Z,100598.44
2022-10-23T11:22:26.031Z,100595.72
2022-10-23T11:25:16.234Z,100581.28
2022-10-23T11:28:06.207Z,100583.19
2022-10-23T11:30:59.696Z,100583.69
2022-10-23T11:34:03.528Z,100584.00
2022-10-23T11:37:04.929Z,100576.09
2022-10-23T11:39:33.859Z,100572.28
2022-10-23T11:42:06.417Z,100580.47
2022-10-23T11:44:47.761Z,100577.75
2022-10-23T11:47:40.129Z,100569.00
2022-10-23T11:50:07.082Z,100569.00
2022-10-23T11:52:42.079Z,100560.03
2022-10-23T11:55:20.791Z,100564.34
2022-10-23T11:58:05.362Z,100548.84
2022-10-23T12:00:34.728Z,100555.13
2022-10-23T12:03:02.295Z,100553.44
2022-10-23T12:05:42.160Z,100545.28
2022-10-23T12:08:22.283Z,100530.81
2022-10-23T12:10:58.955Z,100526.19
2022-10-23T12:13:43.819Z,100535.19
2022-10-23T12:16:10.476Z,100546.94
2022-10-23T12:18:48.610Z,100541.75
2022-10-23T12:21:28.052Z,100526.19
2022-10-23T12:24:09.913Z,100527.28
2022-10-23T12:27:01.668Z,100514.47
2022-10-23T12:29:34.285Z,100519.91
2022-10-23T12:32:12.910Z,100518.00
2022-10-23T12:34:51.639Z,100506.28
2022-10-23T12:37:27.255Z,100509.00
2022-10-23T12:39:56.079Z,100491.56
2022-10-23T12:42:24.926Z,100495.94
2022-10-23T12:45:03.515Z,100477.91
2022-10-23T12:47:30.802Z,100470.81
2022-10-23T12:49:57.311Z,100471.38
2022-10-23T12:52:25.306Z,100460.47
2022-10-23T12:54:52.086Z,100456.63
2022-10-23T12:57:28.321Z,100443.78
2022-10-23T13:00:02.495Z,100449.25
2022-10-23T13:02:31.555Z,100441.06
2022-10-23T13:05:01.914Z,100443.00
2022-10-23T13:07:35.646Z,100436.41
2022-10-23T13:10:02.771Z,100437.22
2022-10-23T13:12:35.360Z,100426.63
2022-10-23T13:15:07.697Z,100431.78
2022-10-23T13:17:43.625Z,100402.88
2022-10-23T13:20:21.257Z,100414.59
2022-10-23T13:23:32.194Z,100415.41
2022-10-23T13:26:01.111Z,100402.59
2022-10-23T13:28:44.818Z,100388.97
2022-10-23T13:31:12.285Z,100397.94
2022-10-23T13:33:44.120Z,100394.09
2022-10-23T13:36:13.462Z,100387.03
2022-10-23T13:38:45.577Z,100386.72
2022-10-23T13:41:19.909Z,100386.44
2022-10-23T13:43:47.891Z,100374.09
2022-10-23T13:46:19.272Z,100371.09
2022-10-23T13:48:46.949Z,100374.63
2022-10-23T13:51:20.595Z,100377.34
2022-10-23T13:53:47.136Z,100370.44
2022-10-23T13:56:15.892Z,100364.19
2022-10-23T13:58:42.476Z,100359.25
2022-10-23T14:01:44.025Z,100374.03
2022-10-23T14:04:11.835Z,100363.59
2022-10-23T14:06:39.201Z,100362.00
2022-10-23T14:09:07.748Z,100361.66
2022-10-23T14:11:34.805Z,100355.13
2022-10-23T14:14:01.312Z,100351.56
2022-10-23T14:16:28.351Z,100357.53
2022-10-23T14:18:55.569Z,100337.63
2022-10-23T14:21:23.701Z,100349.34
2022-10-23T14:23:51.779Z,100358.34
2022-10-23T14:26:21.607Z,100348.22
2022-10-23T14:28:48.107Z,100353.69
2022-10-23T14:31:16.889Z,100357.53
2022-10-23T14:33:44.746Z,100343.56
2022-10-23T14:36:12.720Z,100346.31
2022-10-23T14:38:39.256Z,100343.56
2022-10-23T14:41:16.631Z,100345.50
2022-10-23T14:43:43.309Z,100329.75
2022-10-23T14:46:11.944Z,100324.81
2022-10-23T14:48:38.487Z,100323.19
2022-10-23T14:51:07.917Z,100332.19
2022-10-23T14:53:34.686Z,100321.28
2022-10-23T14:56:03.224Z,100304.09
2022-10-23T14:58:29.911Z,100289.66
2022-10-23T15:01:00.629Z,100300.56
2022-10-23T15:03:28.945Z,100290.47
2022-10-23T15:05:55.730Z,100288.81
2022-10-23T15:08:23.131Z,100295.09
2022-10-23T15:10:50.343Z,100282.28
2022-10-23T15:13:17.058Z,100275.69
2022-10-23T15:15:43.971Z,100276.81
2022-10-23T15:18:10.616Z,100272.44
2022-10-23T15:20:37.149Z,100276.00
2022-10-23T15:23:03.815Z,100278.09
2022-10-23T15:25:30.282Z,100274.88
2022-10-23T15:27:56.762Z,100278.41
2022-10-23T15:30:23.359Z,100270.25
2022-10-23T15:32:49.895Z,100276.81
2022-10-23T15:35:16.585Z,100274.09
2022-10-23T15:37:43.233Z,100273.28
2022-10-23T15:40:10.699Z,100260.44
2022-10-23T15:42:37.196Z,100254.66
2022-10-23T15:45:03.781Z,100265.09
2022-10-23T15:47:30.480Z,100265.59
2022-10-23T15:49:56.988Z,100263.19
2022-10-23T15:52:23.479Z,100252.25
2022-10-23T15:54:49.933Z,100256.59
2022-10-23T15:57:16.450Z,100257.72
2022-10-23T15:59:43.088Z,100257.72
2022-10-23T16:02:11.618Z,100251.47
2022-10-23T16:04:38.209Z,100256.91
2022-10-23T16:07:04.666Z,100248.72
2022-10-23T16:09:31.247Z,100248.41
2022-10-23T16:11:57.722Z,100242.44
2022-10-23T16:14:24.327Z,100251.47
2022-10-23T16:16:50.872Z,100246.81
2022-10-23T16:19:18.640Z,100256.09
2022-10-23T16:21:45.176Z,100257.72
2022-10-23T16:24:12.047Z,100250.63
2022-10-23T16:26:39.280Z,100235.91
2022-10-23T16:29:08.537Z,100231.53
2022-10-23T16:31:35.668Z,100231.53
2022-10-23T16:34:04.795Z,100233.16
2022-10-23T16:36:31.401Z,100228.00
2022-10-23T16:38:57.981Z,100234.25
2022-10-23T16:41:24.459Z,100234.25
2022-10-23T16:43:51.159Z,100224.97
2022-10-23T16:46:20.002Z,100224.47
2022-10-23T16:48:47.392Z,100221.75
2022-10-23T16:51:17.126Z,100210.53
2022-10-23T16:53:44.444Z,100205.38
2022-10-23T16:56:13.140Z,100195.59
2022-10-23T16:58:42.200Z,100187.41
2022-10-23T17:01:11.905Z,100179.22
2022-10-23T17:03:41.360Z,100188.22
2022-10-23T17:06:12.576Z,100198.31
2022-10-23T17:08:40.496Z,100200.72
2022-10-23T17:11:13.319Z,100191.72
2022-10-23T17:13:44.230Z,100200.72
2022-10-23T17:16:20.026Z,100192.84
2022-10-23T17:18:46.945Z,100198.00
2022-10-23T17:21:15.340Z,100201.03
2022-10-23T17:23:42.591Z,100207.31
2022-10-23T17:26:12.034Z,100212.75
2022-10-23T17:28:41.632Z,100216.59
2022-10-23T17:31:15.468Z,100199.91
2022-10-23T17:33:43.037Z,100197.50
2022-10-23T17:36:10.906Z,100192.84
2022-10-23T17:38:39.449Z,100187.41
2022-10-23T17:41:07.733Z,100175.69
2022-10-23T17:43:35.561Z,100187.41
2022-10-23T17:46:04.393Z,100180.03
2022-10-23T17:48:31.140Z,100175.69
2022-10-23T17:51:17.471Z,100174.56
2022-10-23T17:53:46.060Z,100154.16
2022-10-23T17:56:18.917Z,100144.06
2022-10-23T17:58:46.519Z,100147.28
2022-10-23T18:01:15.739Z,100155.78
2022-10-23T18:03:42.382Z,100172.16
2022-10-23T18:09:24.411Z,100217.69
2022-10-23T18:11:51.679Z,100229.72
2022-10-23T18:14:19.615Z,100248.53
2022-10-23T18:16:46.352Z,100244.19
2022-10-23T18:19:14.364Z,100224.00
2022-10-23T18:21:41.018Z,100214.16
2022-10-23T18:24:07.856Z,100197.50
2022-10-23T18:26:40.521Z,100207.63
2022-10-23T18:29:07.783Z,100240.34
2022-10-23T18:31:37.074Z,100260.53
2022-10-23T18:34:09.141Z,100251.25
2022-10-23T18:36:38.594Z,100250.44
2022-10-23T18:39:06.785Z,100298.72
2022-10-23T18:41:35.617Z,100326.00
2022-10-23T18:44:02.687Z,100320.56
2022-10-23T18:46:29.295Z,100323.59
2022-10-23T18:48:55.865Z,100335.00
2022-10-23T18:51:31.937Z,100367.25
2022-10-23T18:54:01.481Z,100360.97
2022-10-23T18:56:28.407Z,100345.41
2022-10-23T18:58:58.104Z,100322.00
2022-10-23T19:01:27.063Z,100297.44
2022-10-23T19:06:22.597Z,100268.25
2022-10-23T19:08:49.604Z,100251.06
2022-10-23T19:11:18.301Z,100240.16
2022-10-23T19:13:44.810Z,100238.22
2022-10-23T19:16:30.153Z,100231.97
2022-10-23T19:19:15.716Z,100229.53
2022-10-23T19:21:43.197Z,100239.34
2022-10-23T19:24:17.719Z,100234.69
2022-10-23T19:26:44.735Z,100226.81
2022-10-23T19:29:13.843Z,100238.84
2022-10-23T19:31:44.667Z,100239.34
2022-10-23T19:34:11.377Z,100236.63
2022-10-23T19:36:37.847Z,100236.91
2022-10-23T19:39:04.410Z,100237.72
2022-10-23T19:41:32.097Z,100248.94
2022-10-23T19:43:58.763Z,100251.06
2022-10-23T19:46:26.658Z,100251.88
2022-10-23T19:48:53.165Z,100239.34
2022-10-23T19:51:19.656Z,100251.34
2022-10-23T19:53:46.174Z,100259.53
2022-10-23T19:56:13.185Z,100254.88
2022-10-23T19:58:40.669Z,100268.84
2022-10-23T20:01:16.831Z,100269.34
2022-10-23T20:03:48.803Z,100273.19
2022-10-23T20:06:21.604Z,100267.72
2022-10-23T20:08:48.830Z,100280.75
2022-10-23T20:11:28.194Z,100274.97
2022-10-23T20:13:55.600Z,100266.81
2022-10-23T20:16:27.225Z,100278.53
2022-10-23T20:18:54.500Z,100273.09
2022-10-23T20:21:21.689Z,100278.53
2022-10-23T20:23:48.435Z,100285.59
2022-10-23T20:26:18.015Z,100290.53
2022-10-23T20:28:47.116Z,100294.06
2022-10-23T20:31:14.930Z,100287.00
2022-10-23T20:33:41.766Z,100289.75
2022-10-23T20:36:17.945Z,100297.94
2022-10-23T20:38:44.416Z,100300.66
2022-10-23T20:41:10.879Z,100283.47
2022-10-23T20:43:38.379Z,100288.63
2022-10-23T20:46:06.456Z,100285.09
2022-10-23T20:48:43.337Z,100300.38
2022-10-23T20:51:12.593Z,100292.47
2022-10-23T20:53:40.460Z,100285.09
2022-10-23T20:56:13.115Z,100291.34
2022-10-23T20:58:39.927Z,100297.94
2022-10-23T21:01:09.653Z,100297.13
2022-10-23T21:03:37.551Z,100290.88
2022-10-23T21:06:05.571Z,100296.31
2022-10-23T21:08:32.111Z,100289.75
2022-10-23T21:10:59.469Z,100299.84
2022-10-23T21:13:26.497Z,100290.88
2022-10-23T21:15:53.381Z,100296.31
2022-10-23T21:18:33.663Z,100287.81
2022-10-23T21:21:08.311Z,100286.22
2022-10-23T21:23:35.592Z,100297.44
2022-10-23T21:26:07.514Z,100288.13
2022-10-23T21:28:34.819Z,100281.88
2022-10-23T21:31:09.375Z,100281.88
2022-10-23T21:33:37.035Z,100280.28
2022-10-23T21:36:18.979Z,100272.09
2022-10-23T21:38:47.033Z,100261.97
2022-10-23T21:41:16.801Z,100263.06
2022-10-23T21:43:43.722Z,100263.91
2022-10-23T21:46:13.958Z,100260.06
2022-10-23T21:48:41.261Z,100254.88
2022-10-23T21:51:16.184Z,100265.00
2022-10-23T21:53:42.641Z,100267.72
2022-10-23T21:56:24.225Z,100269.66
2022-10-23T21:58:50.772Z,100266.13
2022-10-23T22:01:17.581Z,100276.22
2022-10-23T22:03:44.165Z,100275.09
2022-10-23T22:06:30.544Z,100276.22
2022-10-23T22:08:59.301Z,100274.63
2022-10-23T22:11:27.221Z,100260.97
2022-10-23T22:13:54.650Z,100260.66
2022-10-23T22:16:21.554Z,100269.16
2022-10-23T22:18:48.565Z,100260.97
2022-10-23T22:21:23.163Z,100262.88
2022-10-23T22:23:50.767Z,100263.72
2022-10-23T22:26:35.822Z,100261.78
2022-10-23T22:29:09.582Z,100268.31
2022-10-23T22:31:37.022Z,100262.06
2022-10-23T22:34:18.587Z,100264.00
2022-10-23T22:36:53.384Z,100249.22
2022-10-23T22:39:20.001Z,100247.63
2022-10-23T22:41:47.739Z,100239.44
2022-10-23T22:44:15.257Z,100240.25
2022-10-23T22:46:42.555Z,100230.47
2022-10-23T22:49:09.530Z,100229.66
2022-10-23T22:51:37.493Z,100237.84
2022-10-23T22:54:04.061Z,100225.31
2022-10-23T22:56:31.002Z,100215.22
2022-10-23T22:58:57.922Z,100214.41
2022-10-23T23:01:33.668Z,100212.50
2022-10-23T23:04:08.820Z,100212.50
2022-10-23T23:06:47.825Z,100213.59
2022-10-23T23:09:17.917Z,100224.50
2022-10-23T23:11:51.255Z,100217.16
2022-10-23T23:14:22.968Z,100211.19
2022-10-23T23:16:52.007Z,100222.59
2022-10-23T23:19:18.510Z,100203.78
2022-10-23T23:21:44.984Z,100201.38
2022-10-23T23:24:11.866Z,100200.25
2022-10-23T23:26:38.350Z,100202.19
2022-10-23T23:29:04.842Z,100196.72
2022-10-23T23:31:31.639Z,100204.13
2022-10-23T23:33:58.151Z,100193.22
2022-10-23T23:36:26.788Z,100185.81
2022-10-23T23:38:53.453Z,100184.22
2022-10-23T23:41:21.376Z,100186.13
2022-10-23T23:43:48.445Z,100187.75
2022-10-23T23:46:18.215Z,100177.09
2022-10-23T23:48:48.070Z,100179.03
2022-10-23T23:51:16.337Z,100165.38
2022-10-23T23:53:43.348Z,100162.66
2022-10-23T23:56:10.191Z,100169.25
2022-10-23T23:58:36.760Z,100165.72
